Decoded Metar for KRRL (MERRILL in WI, USA) (IATA:RRL) | Meteo·Mobile Aviation Weather
aviador You're here:

KRRL Decoded Metar

MERRILL in WI, USA
Report Time2019-01-21 23:55:00
UTC Time2019-01-21 23:53:35
Flight Rules vfr VFR
Wind140° at 10 kt
W.Decomp.*RWY 16: 9.5 kt HW 3.3 kt LCW
RWY 07: 3.3 kt HW 9.5 kt RCW
W.Rank140° ranks 11
Current wind is above 140° avg. (6.0)
Visibility9999 m
Phenomena:N/A
Clouds:Scattered 027 Hf
Scattered 090 Hf
Scattered 110 Hf
Expected CloudBase > 2,000 ft AGL from Temp-Dew spread
CeilingNone
Temp-10°C (ISA -22)
Dew Point-15°C (67% RH)
AAT-17.0°C
QNH1025 hPa
Density Alt-1,854 ft
Elevation1,316 ft
Report Wrong Elevation
Raw Report
METAR KRRL 212355Z AUTO 14010KT 10SM SCT027 SCT090 SCT110 M10/M15 A3028
RMK AO2 T10981151 11079 21117 TSNO=

Extra information for KRRL:More info

Metar Taf Metar & Taf Last 4 Metars F.Rules Stats Wind Profile Meteogram Temp Stats Airport Information Weather charts Add Link Nearby VenuesMetar ALERT Operation Metar Decoded Social comments

AIRNAV info for KRRL